Time;durP1;ratioP1;P1;durP2;ratioP2;P2;SDS_P1;SDS_P2;PMS_P1;PMS_P2;Temp;Humidity;BMP_temperature;BMP_pressure;BME280_temperature;BME280_humidity;BME280_pressure;Samples;Min_cycle;Max_cycle;Signal;HPM_P1;HPM_P2
2021/03/20 00:01:00;;;;;;;5.70;1.95;;;-0.50;99.90;;;;;;5047197;28;20531;-44
2021/03/20 00:03:26;;;;;;;4.82;1.88;;;-0.50;99.90;;;;;;5047470;28;20040;-45
2021/03/20 00:05:52;;;;;;;6.03;2.53;;;-0.50;99.90;;;;;;5046117;28;20021;-46
2021/03/20 00:08:21;;;;;;;6.00;1.88;;;-0.50;99.90;;;;;;5047315;28;20032;-45
2021/03/20 00:10:47;;;;;;;7.13;2.20;;;-0.50;99.90;;;;;;5046483;28;20053;-45
2021/03/20 00:13:14;;;;;;;8.73;1.90;;;-0.50;99.90;;;;;;5067054;28;20024;-46
2021/03/20 00:15:39;;;;;;;6.63;2.45;;;-0.50;99.90;;;;;;5067450;28;20296;-45
2021/03/20 00:18:06;;;;;;;4.43;2.00;;;-0.50;99.90;;;;;;5065731;28;20047;-44
2021/03/20 00:20:36;;;;;;;4.80;1.92;;;-0.50;99.90;;;;;;5049797;28;20017;-44
2021/03/20 00:23:02;;;;;;;3.53;2.20;;;-0.50;99.90;;;;;;5051149;28;20025;-46
2021/03/20 00:25:28;;;;;;;7.78;2.30;;;-0.50;99.90;;;;;;5050666;28;20021;-44
2021/03/20 00:27:54;;;;;;;4.10;2.35;;;-0.50;99.90;;;;;;5050950;28;20062;-44
2021/03/20 00:30:21;;;;;;;6.40;2.40;;;-0.50;99.90;;;;;;5056067;28;20017;-45
2021/03/20 00:32:46;;;;;;;6.65;2.53;;;-0.50;99.90;;;;;;5058151;28;20103;-44
2021/03/20 00:35:13;;;;;;;6.32;2.83;;;-0.50;99.90;;;;;;5050449;28;20107;-47
2021/03/20 00:37:39;;;;;;;7.18;2.10;;;-0.50;99.90;;;;;;5050811;28;20025;-45
2021/03/20 00:40:08;;;;;;;7.72;2.15;;;-0.50;99.90;;;;;;5049195;28;20116;-45
2021/03/20 00:42:34;;;;;;;3.53;2.03;;;-0.50;99.90;;;;;;5051020;28;20078;-45
2021/03/20 00:44:59;;;;;;;7.75;2.00;;;-0.40;99.90;;;;;;5049538;28;20021;-44
2021/03/20 00:47:26;;;;;;;5.10;2.22;;;-0.50;99.90;;;;;;5053505;28;20045;-45
2021/03/20 00:49:51;;;;;;;5.38;2.10;;;-0.50;99.90;;;;;;5059529;28;20070;-47
2021/03/20 00:52:17;;;;;;;4.15;1.80;;;-0.50;99.90;;;;;;5062514;28;20032;-48
2021/03/20 00:54:42;;;;;;;6.55;2.20;;;-0.40;99.90;;;;;;5061042;28;20029;-45
2021/03/20 00:57:08;;;;;;;6.35;2.25;;;-0.40;99.90;;;;;;5059218;28;20017;-47
2021/03/20 00:59:33;;;;;;;4.45;2.13;;;-0.40;99.90;;;;;;5061758;28;20017;-45
2021/03/20 01:01:59;;;;;;;8.43;2.15;;;-0.40;99.90;;;;;;5070694;28;20569;-48
2021/03/20 01:04:24;;;;;;;2.92;1.85;;;-0.50;99.90;;;;;;5070733;28;20108;-45
2021/03/20 01:06:50;;;;;;;4.60;2.00;;;-0.50;99.90;;;;;;5068903;28;20048;-45
2021/03/20 01:09:16;;;;;;;5.10;1.85;;;-0.50;99.90;;;;;;5069294;28;20027;-45
2021/03/20 01:11:41;;;;;;;3.40;2.13;;;-0.50;99.90;;;;;;5069213;28;20036;-45
2021/03/20 01:14:07;;;;;;;4.68;1.67;;;-0.60;99.90;;;;;;5066800;28;20040;-44
2021/03/20 01:16:34;;;;;;;3.10;1.90;;;-0.60;99.90;;;;;;5048509;28;20454;-44
2021/03/20 01:19:00;;;;;;;2.47;1.60;;;-0.60;99.90;;;;;;5050553;28;20358;-45
2021/03/20 01:21:26;;;;;;;6.40;2.00;;;-0.60;99.90;;;;;;5050385;28;20021;-45
2021/03/20 01:23:52;;;;;;;4.57;1.80;;;-0.70;99.90;;;;;;5050316;28;20082;-45
2021/03/20 01:26:18;;;;;;;4.63;2.25;;;-0.60;99.90;;;;;;5049553;28;20021;-44
2021/03/20 01:28:43;;;;;;;7.30;2.30;;;-0.70;99.90;;;;;;5050529;28;20074;-44
2021/03/20 01:31:11;;;;;;;4.30;1.92;;;-0.70;99.90;;;;;;5058577;28;20032;-45
2021/03/20 01:33:37;;;;;;;4.18;1.92;;;-0.80;99.90;;;;;;5069379;28;20031;-45
2021/03/20 01:36:03;;;;;;;4.03;1.92;;;-0.80;99.90;;;;;;5068557;28;20024;-45
2021/03/20 01:38:28;;;;;;;4.95;1.75;;;-0.80;99.90;;;;;;5069208;28;20050;-46
2021/03/20 01:41:05;;;;;;;10.20;2.15;;;-0.80;99.90;;;;;;5067662;28;20419;-44
2021/03/20 01:43:33;;;;;;;6.00;3.85;;;-0.80;99.90;;;;;;5068928;28;20450;-45
2021/03/20 01:46:40;;;;;;;5.28;1.92;;;-0.80;99.90;;;;;;5064376;28;20501;-46
2021/03/20 01:49:18;;;;;;;5.50;1.73;;;-0.80;99.90;;;;;;5069921;28;20436;-44
2021/03/20 01:52:01;;;;;;;6.60;1.83;;;-0.70;99.90;;;;;;5069728;28;20040;-44
2021/03/20 01:54:41;;;;;;;5.35;2.25;;;-0.80;99.90;;;;;;5068508;28;20028;-44
2021/03/20 01:57:06;;;;;;;4.70;2.00;;;-0.80;99.90;;;;;;5069529;28;20032;-45
2021/03/20 01:59:32;;;;;;;3.17;1.60;;;-0.80;99.90;;;;;;5070194;28;20020;-45
2021/03/20 02:01:58;;;;;;;7.30;2.40;;;-0.80;99.90;;;;;;5069882;28;20027;-45
2021/03/20 02:04:25;;;;;;;3.92;2.13;;;-0.80;99.90;;;;;;5068636;28;20190;-46
2021/03/20 02:06:50;;;;;;;7.75;2.45;;;-0.80;99.90;;;;;;5069084;28;20031;-45
2021/03/20 02:09:16;;;;;;;9.07;3.05;;;-0.80;99.90;;;;;;5069741;28;20024;-45
2021/03/20 02:12:09;;;;;;;15.63;4.70;;;-0.80;99.90;;;;;;5069746;28;20474;-44
2021/03/20 02:14:48;;;;;;;11.10;4.00;;;-0.70;99.90;;;;;;5062161;28;20103;-45
2021/03/20 02:17:24;;;;;;;13.75;4.13;;;-0.70;99.90;;;;;;5049465;28;20025;-45
2021/03/20 02:20:02;;;;;;;12.95;4.85;;;-0.80;99.90;;;;;;5049371;28;20071;-46
2021/03/20 02:22:57;;;;;;;16.50;5.15;;;-0.80;99.90;;;;;;5049309;28;20466;-45
2021/03/20 02:26:02;;;;;;;14.15;5.28;;;-0.80;99.90;;;;;;5048732;28;20060;-45
2021/03/20 02:28:45;;;;;;;16.67;5.68;;;-0.80;99.90;;;;;;5049527;28;20056;-45
2021/03/20 02:31:42;;;;;;;13.45;5.25;;;-0.80;99.90;;;;;;5047464;28;20029;-45
2021/03/20 02:34:43;;;;;;;19.17;6.93;;;-0.90;99.90;;;;;;5047869;28;20029;-44
2021/03/20 02:37:27;;;;;;;16.40;6.07;;;-0.90;99.90;;;;;;5048476;28;20017;-44
2021/03/20 02:40:09;;;;;;;20.08;6.13;;;-0.90;99.90;;;;;;5047831;28;20219;-44
2021/03/20 02:42:45;;;;;;;23.80;8.63;;;-1.00;99.90;;;;;;5048809;28;20118;-47
2021/03/20 02:45:29;;;;;;;20.98;6.47;;;-1.00;99.90;;;;;;5048012;28;20105;-45
2021/03/20 02:48:22;;;;;;;13.13;5.82;;;-1.00;99.90;;;;;;5048602;28;20116;-46
2021/03/20 02:51:04;;;;;;;20.10;6.35;;;-1.00;99.90;;;;;;5048814;28;20474;-44
2021/03/20 02:53:43;;;;;;;13.07;4.45;;;-1.00;99.90;;;;;;5048660;28;20119;-44
2021/03/20 02:56:16;;;;;;;11.50;4.40;;;-1.00;99.90;;;;;;5046511;28;20021;-44
2021/03/20 02:59:00;;;;;;;11.65;4.13;;;-1.00;99.90;;;;;;5048568;28;20074;-47
2021/03/20 03:01:27;;;;;;;9.93;4.32;;;-1.00;99.90;;;;;;5048374;28;20076;-44
2021/03/20 03:03:54;;;;;;;10.15;4.93;;;-1.10;99.90;;;;;;5048613;28;20356;-44
2021/03/20 03:06:23;;;;;;;10.35;4.07;;;-1.10;99.90;;;;;;5047970;28;20500;-44
2021/03/20 03:09:12;;;;;;;10.30;3.85;;;-1.10;99.90;;;;;;5048574;28;20025;-44
2021/03/20 03:12:16;;;;;;;10.10;3.75;;;-1.10;99.90;;;;;;5035031;28;20533;-44
2021/03/20 03:14:51;;;;;;;6.60;3.10;;;-1.10;99.90;;;;;;4986045;28;20532;-44
2021/03/20 03:17:17;;;;;;;9.63;3.53;;;-1.10;99.90;;;;;;5039246;28;20032;-44
2021/03/20 03:19:48;;;;;;;9.75;3.50;;;-1.10;99.90;;;;;;5048340;28;20025;-45
2021/03/20 03:22:29;;;;;;;8.15;3.05;;;-1.20;99.90;;;;;;5048344;28;20036;-44
2021/03/20 03:24:58;;;;;;;9.38;3.38;;;-1.20;99.90;;;;;;5047729;28;20036;-45
2021/03/20 03:27:27;;;;;;;7.22;3.63;;;-1.30;99.90;;;;;;5048248;28;20404;-44
2021/03/20 03:29:53;;;;;;;6.75;3.13;;;-1.30;99.90;;;;;;5048160;28;20063;-45
2021/03/20 03:32:32;;;;;;;6.40;2.95;;;-1.30;99.90;;;;;;5048354;28;20083;-45
2021/03/20 03:35:15;;;;;;;9.52;3.45;;;-1.30;99.90;;;;;;5047821;28;20109;-46
2021/03/20 03:37:59;;;;;;;8.18;3.30;;;-1.30;99.90;;;;;;5048706;28;20033;-45
2021/03/20 03:40:33;;;;;;;7.28;3.42;;;-1.40;99.90;;;;;;5048673;28;20391;-46
2021/03/20 03:42:59;;;;;;;8.05;3.75;;;-1.30;99.90;;;;;;5048223;28;20021;-45
2021/03/20 03:45:24;;;;;;;6.35;3.33;;;-1.30;99.90;;;;;;5048066;28;20124;-45
2021/03/20 03:47:50;;;;;;;6.22;3.25;;;-1.20;99.90;;;;;;5047287;28;20032;-44
2021/03/20 03:50:21;;;;;;;8.50;3.28;;;-1.30;99.90;;;;;;5047801;28;20073;-46
2021/03/20 03:52:47;;;;;;;9.45;3.65;;;-1.30;99.90;;;;;;5047922;28;20178;-45
2021/03/20 03:55:13;;;;;;;12.60;3.88;;;-1.30;99.90;;;;;;5049065;28;20506;-45
2021/03/20 03:58:21;;;;;;;12.13;3.85;;;-1.30;99.90;;;;;;5052115;28;20066;-45
2021/03/20 04:01:10;;;;;;;11.80;5.80;;;-1.30;99.90;;;;;;5042958;28;20033;-45
2021/03/20 04:03:57;;;;;;;14.30;6.53;;;-1.40;99.90;;;;;;5050315;28;20025;-45
2021/03/20 04:07:04;;;;;;;16.33;6.32;;;-1.40;99.90;;;;;;5051643;28;20027;-46
2021/03/20 04:09:45;;;;;;;19.02;7.60;;;-1.40;99.90;;;;;;5052051;28;20032;-45
2021/03/20 04:12:21;;;;;;;9.63;4.60;;;-1.50;99.90;;;;;;5052012;28;20192;-45
2021/03/20 04:15:14;;;;;;;13.75;4.68;;;-1.50;99.90;;;;;;5051250;28;20033;-44
2021/03/20 04:17:53;;;;;;;10.57;4.15;;;-1.50;99.90;;;;;;5051442;28;20071;-45
2021/03/20 04:20:22;;;;;;;11.20;4.63;;;-1.60;99.90;;;;;;5051709;28;20124;-44
2021/03/20 04:23:04;;;;;;;11.90;3.88;;;-1.60;99.90;;;;;;5051363;28;20021;-46
2021/03/20 04:25:46;;;;;;;15.23;4.03;;;-1.60;99.90;;;;;;5051068;28;20440;-44
2021/03/20 04:28:42;;;;;;;8.85;3.90;;;-1.60;99.90;;;;;;5051357;28;20064;-44
2021/03/20 04:31:29;;;;;;;6.20;2.90;;;-1.60;99.90;;;;;;5049645;28;20037;-48
2021/03/20 04:34:05;;;;;;;7.05;3.30;;;-1.60;99.90;;;;;;5051247;28;20184;-45
2021/03/20 04:36:36;;;;;;;6.15;3.05;;;-1.70;99.90;;;;;;5050860;28;20021;-48
2021/03/20 04:39:06;;;;;;;6.57;2.88;;;-1.60;99.90;;;;;;5051565;28;20071;-44
2021/03/20 04:41:32;;;;;;;8.73;3.33;;;-1.70;99.90;;;;;;5051393;28;20521;-46
2021/03/20 04:43:58;;;;;;;12.10;3.80;;;-1.70;99.90;;;;;;5051051;28;20544;-44
2021/03/20 04:46:28;;;;;;;10.15;4.30;;;-1.70;99.90;;;;;;5050227;28;20029;-45
2021/03/20 04:49:25;;;;;;;13.40;3.72;;;-1.60;99.90;;;;;;5058068;28;20025;-45
2021/03/20 04:52:24;;;;;;;12.15;4.57;;;-1.70;99.90;;;;;;5060676;28;20107;-45
2021/03/20 04:54:50;;;;;;;20.13;5.72;;;-1.70;99.90;;;;;;5054357;28;20719;-44
2021/03/20 04:57:44;;;;;;;14.75;5.28;;;-1.70;99.90;;;;;;5049571;28;20149;-44
2021/03/20 05:00:12;;;;;;;19.98;6.50;;;-1.70;99.90;;;;;;5050739;28;20664;-44
2021/03/20 05:02:50;;;;;;;23.98;7.68;;;-1.70;99.90;;;;;;5050875;28;20064;-44
2021/03/20 05:05:34;;;;;;;29.27;6.22;;;-1.70;99.90;;;;;;5049936;28;20048;-44
2021/03/20 05:08:05;;;;;;;21.83;6.80;;;-1.80;99.90;;;;;;5050832;28;20029;-45
2021/03/20 05:10:57;;;;;;;14.05;5.13;;;-1.80;99.90;;;;;;5050681;28;20025;-44
2021/03/20 05:13:39;;;;;;;16.05;5.25;;;-1.70;99.90;;;;;;5050269;28;20474;-46
2021/03/20 05:16:17;;;;;;;12.02;4.00;;;-1.70;99.90;;;;;;5049571;28;20500;-46
2021/03/20 05:18:43;;;;;;;8.25;3.72;;;-1.80;99.90;;;;;;5050426;28;20437;-45
2021/03/20 05:21:15;;;;;;;8.32;3.40;;;-1.80;99.90;;;;;;5050431;28;20090;-44
2021/03/20 05:23:41;;;;;;;8.30;3.28;;;-1.70;99.90;;;;;;5048999;28;20064;-45
2021/03/20 05:26:08;;;;;;;10.35;4.07;;;-1.70;99.90;;;;;;5057241;28;20067;-45
2021/03/20 05:28:33;;;;;;;7.35;3.70;;;-1.70;99.90;;;;;;5058675;28;20033;-46
2021/03/20 05:31:01;;;;;;;11.02;3.95;;;-1.70;99.90;;;;;;5060059;28;20028;-44
2021/03/20 05:33:27;;;;;;;9.23;4.00;;;-1.70;99.90;;;;;;5058436;28;20021;-45
2021/03/20 05:35:53;;;;;;;15.52;4.20;;;-1.70;99.90;;;;;;5057970;28;20027;-46
2021/03/20 05:38:19;;;;;;;11.25;3.70;;;-1.70;99.90;;;;;;5060606;28;20020;-44
2021/03/20 05:40:45;;;;;;;8.65;3.40;;;-1.70;99.90;;;;;;5059725;28;20031;-45
2021/03/20 05:43:35;;;;;;;8.82;4.00;;;-1.70;99.90;;;;;;5053285;28;20082;-44
2021/03/20 05:46:25;;;;;;;8.70;3.78;;;-1.70;99.90;;;;;;5048857;28;20032;-45
2021/03/20 05:49:15;;;;;;;12.95;4.80;;;-1.60;99.90;;;;;;5049710;28;20052;-44
2021/03/20 05:51:58;;;;;;;15.83;5.33;;;-1.60;99.90;;;;;;5049823;28;20033;-45
2021/03/20 05:54:36;;;;;;;19.35;5.07;;;-1.50;99.90;;;;;;5057001;28;20021;-43
2021/03/20 05:57:23;;;;;;;19.55;5.75;;;-1.50;99.90;;;;;;5049247;28;20406;-44
2021/03/20 06:00:07;;;;;;;21.95;5.93;;;-1.50;99.90;;;;;;5049264;28;20027;-45
2021/03/20 06:02:52;;;;;;;16.48;7.15;;;-1.40;99.90;;;;;;5049489;28;20096;-45
2021/03/20 06:05:39;;;;;;;11.80;4.95;;;-1.40;99.90;;;;;;5056139;28;20016;-44
2021/03/20 06:08:32;;;;;;;15.57;4.25;;;-1.40;99.90;;;;;;5067678;28;20020;-44
2021/03/20 06:11:02;;;;;;;8.85;3.55;;;-1.40;99.90;;;;;;5062930;28;20385;-46
2021/03/20 06:13:40;;;;;;;9.20;4.28;;;-1.20;99.90;;;;;;5066431;28;20036;-44
2021/03/20 06:16:23;;;;;;;9.93;3.97;;;-1.20;99.90;;;;;;5068385;28;20032;-46
2021/03/20 06:19:17;;;;;;;10.00;3.53;;;-1.30;99.90;;;;;;5068479;28;20021;-44
2021/03/20 06:22:10;;;;;;;8.52;4.18;;;-1.20;99.90;;;;;;5064151;28;20139;-46
2021/03/20 06:25:00;;;;;;;13.32;4.40;;;-1.10;99.90;;;;;;5063354;28;20020;-45
2021/03/20 06:27:32;;;;;;;7.18;3.40;;;-1.20;99.90;;;;;;5075741;28;20032;-46
2021/03/20 06:30:23;;;;;;;8.73;3.70;;;-1.10;99.90;;;;;;5062058;28;20474;-45
2021/03/20 06:32:51;;;;;;;8.13;3.28;;;-1.10;99.90;;;;;;5060988;28;20043;-45
2021/03/20 06:35:17;;;;;;;8.88;3.25;;;-1.00;99.90;;;;;;5060923;28;20025;-47
2021/03/20 06:37:55;;;;;;;5.85;3.38;;;-1.00;99.90;;;;;;5064441;28;20048;-45
2021/03/20 06:40:42;;;;;;;5.95;3.88;;;-0.80;99.90;;;;;;5063916;28;20012;-48
2021/03/20 06:43:13;;;;;;;6.60;3.20;;;-0.70;99.90;;;;;;5065021;28;20074;-46
2021/03/20 06:45:39;;;;;;;7.82;5.00;;;-0.60;99.90;;;;;;5058331;28;20040;-48
2021/03/20 06:48:31;;;;;;;10.02;4.07;;;-0.60;99.90;;;;;;5057015;28;20072;-47
2021/03/20 06:51:00;;;;;;;7.03;4.30;;;-0.60;99.90;;;;;;5056164;28;20029;-45
2021/03/20 06:53:54;;;;;;;6.90;3.25;;;-0.50;99.90;;;;;;5053639;28;20387;-45
2021/03/20 06:56:20;;;;;;;5.47;2.95;;;-0.40;99.90;;;;;;5064212;28;20016;-51
2021/03/20 06:58:46;;;;;;;11.05;3.90;;;-0.30;99.90;;;;;;5066457;28;20105;-45
2021/03/20 07:01:35;;;;;;;10.18;3.72;;;-0.20;99.90;;;;;;5065674;28;20024;-45
2021/03/20 07:04:35;;;;;;;9.45;3.50;;;-0.10;99.90;;;;;;5061540;28;20059;-45
2021/03/20 07:07:31;;;;;;;4.38;2.85;;;0.00;99.90;;;;;;5063282;28;20043;-45
2021/03/20 07:09:59;;;;;;;7.53;3.10;;;0.10;99.90;;;;;;5055153;28;20024;-45
2021/03/20 07:12:26;;;;;;;6.38;3.30;;;0.10;99.90;;;;;;5056494;28;20024;-45
2021/03/20 07:14:57;;;;;;;6.25;2.80;;;0.20;99.90;;;;;;5060495;28;20046;-48
2021/03/20 07:17:28;;;;;;;5.75;3.05;;;0.30;99.90;;;;;;5063030;28;20024;-45
2021/03/20 07:20:17;;;;;;;7.35;3.03;;;0.40;99.90;;;;;;5058910;28;20093;-45
2021/03/20 07:22:46;;;;;;;7.95;2.80;;;0.40;99.90;;;;;;5053696;28;20381;-47
2021/03/20 07:25:29;;;;;;;6.10;2.70;;;0.30;99.90;;;;;;5051866;28;20023;-44
2021/03/20 07:28:12;;;;;;;7.47;3.17;;;0.40;99.90;;;;;;5059165;28;20596;-45
2021/03/20 07:30:57;;;;;;;5.05;2.97;;;0.30;99.90;;;;;;5061803;28;20037;-48
2021/03/20 07:33:33;;;;;;;7.18;2.40;;;0.40;99.90;;;;;;5061504;28;20021;-45
2021/03/20 07:36:35;;;;;;;4.00;2.30;;;0.40;99.90;;;;;;5060653;28;20067;-45
2021/03/20 07:39:27;;;;;;;5.45;2.70;;;0.50;99.90;;;;;;5063546;28;20366;-46
2021/03/20 07:42:02;;;;;;;4.70;2.70;;;0.50;99.90;;;;;;5055646;28;20033;-48
2021/03/20 07:44:45;;;;;;;12.20;3.33;;;0.60;99.90;;;;;;5062073;28;20028;-46
2021/03/20 07:47:13;;;;;;;6.95;2.47;;;0.50;99.90;;;;;;5061725;28;20115;-45
2021/03/20 07:49:39;;;;;;;11.68;3.22;;;0.60;99.90;;;;;;5067775;28;20032;-46
2021/03/20 07:52:20;;;;;;;7.75;3.08;;;0.60;99.90;;;;;;5053161;28;20075;-45
2021/03/20 07:54:45;;;;;;;6.72;2.63;;;0.80;99.90;;;;;;5053278;28;20570;-48
2021/03/20 07:57:16;;;;;;;4.53;2.10;;;1.00;99.90;;;;;;5052728;28;20123;-46
2021/03/20 07:59:48;;;;;;;10.15;2.50;;;1.20;99.90;;;;;;5062010;28;20021;-46
2021/03/20 08:02:31;;;;;;;7.95;2.83;;;1.50;99.90;;;;;;5062018;28;20065;-47
2021/03/20 08:05:06;;;;;;;5.10;2.60;;;1.90;99.90;;;;;;5062622;28;20029;-48
2021/03/20 08:07:40;;;;;;;4.15;2.28;;;2.20;99.90;;;;;;5062902;28;20032;-46
2021/03/20 08:10:27;;;;;;;7.88;2.70;;;2.30;99.90;;;;;;5061703;28;20059;-49
2021/03/20 08:13:15;;;;;;;11.38;2.67;;;2.50;99.90;;;;;;5062379;28;20052;-47
2021/03/20 08:15:53;;;;;;;8.45;3.08;;;2.70;99.90;;;;;;5062984;28;20099;-45
2021/03/20 08:18:23;;;;;;;6.93;2.30;;;2.80;98.60;;;;;;5063545;28;20017;-45
2021/03/20 08:21:14;;;;;;;7.53;2.75;;;2.70;98.70;;;;;;5058003;28;20044;-45
2021/03/20 08:24:28;;;;;;;5.53;2.15;;;2.70;96.00;;;;;;5052741;28;20382;-47
2021/03/20 08:27:17;;;;;;;5.15;2.25;;;2.90;94.10;;;;;;5055028;28;20055;-45
2021/03/20 08:30:04;;;;;;;5.45;1.73;;;3.10;88.20;;;;;;5052468;28;20033;-46
2021/03/20 08:33:09;;;;;;;5.22;1.88;;;3.50;89.40;;;;;;5052167;28;20032;-46
2021/03/20 08:35:54;;;;;;;4.90;2.33;;;4.10;85.30;;;;;;5050870;28;20036;-49
2021/03/20 08:38:20;;;;;;;6.78;2.05;;;4.30;84.10;;;;;;5065178;28;20056;-45
2021/03/20 08:41:11;;;;;;;5.15;2.28;;;4.80;74.10;;;;;;5073543;28;20036;-46
2021/03/20 08:44:01;;;;;;;4.38;2.05;;;5.60;73.90;;;;;;5077952;28;20457;-46
2021/03/20 08:47:04;;;;;;;4.82;1.90;;;7.00;65.50;;;;;;5072675;28;20025;-47
2021/03/20 08:50:06;;;;;;;3.90;2.17;;;7.60;61.10;;;;;;5085833;28;20040;-45
2021/03/20 08:52:41;;;;;;;3.83;2.10;;;7.30;57.80;;;;;;5071185;28;20496;-45
2021/03/20 08:55:37;;;;;;;5.38;2.40;;;6.70;58.30;;;;;;5074896;28;20032;-44
2021/03/20 08:58:30;;;;;;;3.85;2.17;;;6.10;56.90;;;;;;5062952;28;20016;-45
2021/03/20 09:01:07;;;;;;;7.03;2.40;;;5.60;59.20;;;;;;5079092;28;20021;-46
2021/03/20 09:03:39;;;;;;;6.95;2.83;;;5.90;60.00;;;;;;5070763;28;20020;-51
2021/03/20 09:06:29;;;;;;;5.63;2.35;;;5.80;60.90;;;;;;5069873;28;20592;-48
2021/03/20 09:09:00;;;;;;;4.22;2.20;;;5.70;62.50;;;;;;5074984;28;20017;-45
2021/03/20 09:12:00;;;;;;;5.32;3.30;;;5.40;62.80;;;;;;5070815;28;20043;-45
2021/03/20 09:14:31;;;;;;;6.65;2.20;;;5.20;64.10;;;;;;5068097;28;20036;-45
2021/03/20 09:17:31;;;;;;;7.13;2.50;;;5.00;63.60;;;;;;5069955;28;20043;-45
2021/03/20 09:20:14;;;;;;;6.90;2.83;;;4.80;66.10;;;;;;5059650;28;20544;-46
2021/03/20 09:22:44;;;;;;;6.18;2.85;;;4.70;64.30;;;;;;5062649;28;20312;-44
2021/03/20 09:25:19;;;;;;;6.50;2.35;;;4.30;65.50;;;;;;5064225;28;20031;-44
2021/03/20 09:28:05;;;;;;;3.72;2.10;;;4.30;63.30;;;;;;5090241;28;20024;-44
2021/03/20 09:30:56;;;;;;;8.38;2.65;;;4.40;62.40;;;;;;5090455;28;20500;-45
2021/03/20 09:33:25;;;;;;;5.90;2.30;;;4.20;62.50;;;;;;5090286;28;20477;-44
2021/03/20 09:36:00;;;;;;;6.15;2.30;;;3.90;62.90;;;;;;5088099;28;20024;-44
2021/03/20 09:38:47;;;;;;;10.70;2.72;;;4.10;63.00;;;;;;5090248;28;20099;-44
2021/03/20 09:41:13;;;;;;;4.97;1.98;;;4.10;65.00;;;;;;5090288;28;20262;-44
2021/03/20 09:44:00;;;;;;;5.00;2.10;;;4.20;63.60;;;;;;5074273;28;20309;-44
2021/03/20 09:46:41;;;;;;;3.35;1.48;;;4.10;64.80;;;;;;5059796;28;20021;-44
2021/03/20 09:49:06;;;;;;;6.20;2.22;;;4.10;64.20;;;;;;5090030;28;20090;-45
2021/03/20 09:51:59;;;;;;;7.43;2.72;;;4.20;66.10;;;;;;5058699;28;20063;-45
2021/03/20 09:54:25;;;;;;;5.43;2.40;;;4.30;66.90;;;;;;5049334;28;20025;-45
2021/03/20 09:57:27;;;;;;;5.20;2.65;;;4.50;67.10;;;;;;5053522;28;20244;-46
2021/03/20 09:59:54;;;;;;;6.85;2.38;;;4.60;66.30;;;;;;5059454;28;20039;-45
2021/03/20 10:02:19;;;;;;;5.25;2.28;;;4.80;61.50;;;;;;5060908;28;20027;-45
2021/03/20 10:05:00;;;;;;;4.63;1.65;;;4.80;59.60;;;;;;5076371;28;20024;-45
2021/03/20 10:07:35;;;;;;;4.22;1.88;;;4.70;61.60;;;;;;5072197;28;20103;-45
2021/03/20 10:10:10;;;;;;;5.32;2.30;;;4.70;60.70;;;;;;5068399;28;20028;-46
2021/03/20 10:12:44;;;;;;;5.05;1.92;;;4.70;62.30;;;;;;5070115;28;20032;-46
2021/03/20 10:15:14;;;;;;;4.53;1.80;;;4.70;62.90;;;;;;5075709;28;20115;-45
2021/03/20 10:18:04;;;;;;;5.53;1.95;;;4.70;62.90;;;;;;5067899;28;20023;-45
2021/03/20 10:20:42;;;;;;;5.30;1.83;;;4.70;63.30;;;;;;5062136;28;20478;-46
2021/03/20 10:23:19;;;;;;;3.05;1.50;;;4.60;58.50;;;;;;5064429;28;20048;-45
2021/03/20 10:25:51;;;;;;;6.07;1.90;;;4.50;59.40;;;;;;5079760;28;20088;-45
2021/03/20 10:28:18;;;;;;;5.93;2.30;;;4.60;58.00;;;;;;5055847;28;20025;-46
2021/03/20 10:31:00;;;;;;;8.18;2.38;;;4.60;57.90;;;;;;5048435;28;20037;-45
2021/03/20 10:33:31;;;;;;;3.75;1.77;;;4.80;58.80;;;;;;5059336;28;20025;-46
2021/03/20 10:36:20;;;;;;;4.43;2.00;;;4.60;55.50;;;;;;5063922;28;20044;-45
2021/03/20 10:38:48;;;;;;;2.53;1.42;;;4.60;59.20;;;;;;5080818;28;20051;-47
2021/03/20 10:41:29;;;;;;;3.67;1.67;;;4.80;58.40;;;;;;5067161;28;20059;-47
2021/03/20 10:44:01;;;;;;;4.35;1.88;;;5.20;57.30;;;;;;5067242;28;20115;-46
2021/03/20 10:46:32;;;;;;;4.85;1.85;;;5.30;54.70;;;;;;5066307;28;20032;-46
2021/03/20 10:49:02;;;;;;;3.80;1.70;;;5.30;55.20;;;;;;5066946;28;20040;-46
2021/03/20 10:51:39;;;;;;;5.05;2.13;;;4.90;52.70;;;;;;5052773;28;20053;-46
2021/03/20 10:54:17;;;;;;;5.28;2.47;;;5.30;55.20;;;;;;5047922;28;20021;-45
2021/03/20 10:56:43;;;;;;;5.88;2.10;;;5.50;54.70;;;;;;5047151;28;20025;-47
2021/03/20 10:59:32;;;;;;;6.00;2.67;;;6.10;54.00;;;;;;5047624;28;20389;-46
2021/03/20 11:02:22;;;;;;;4.18;1.75;;;6.80;55.60;;;;;;5047502;28;20027;-46
2021/03/20 11:04:50;;;;;;;5.15;1.95;;;7.10;52.40;;;;;;5047314;28;20021;-47
2021/03/20 11:07:18;;;;;;;5.63;2.80;;;7.40;52.60;;;;;;5047322;28;20142;-46
2021/03/20 11:09:44;;;;;;;5.65;2.13;;;8.50;50.10;;;;;;5046938;28;20116;-46
2021/03/20 11:12:16;;;;;;;9.82;2.13;;;9.60;50.50;;;;;;5047763;28;20467;-47
2021/03/20 11:14:54;;;;;;;3.45;1.70;;;11.70;45.20;;;;;;5047403;28;20028;-46
2021/03/20 11:17:27;;;;;;;3.30;1.98;;;12.10;40.10;;;;;;5047872;28;20028;-47
2021/03/20 11:20:01;;;;;;;3.20;1.58;;;12.90;40.30;;;;;;5047175;28;20021;-47
2021/03/20 11:22:36;;;;;;;4.47;1.70;;;13.70;37.90;;;;;;5062420;28;20355;-49
2021/03/20 11:25:15;;;;;;;4.03;1.95;;;13.50;36.20;;;;;;5065951;28;20467;-46
2021/03/20 11:27:41;;;;;;;2.00;1.50;;;14.30;34.80;;;;;;5089133;28;20557;-49
2021/03/20 11:30:12;;;;;;;2.85;1.23;;;13.30;36.60;;;;;;5089053;28;20114;-51
2021/03/20 11:32:44;;;;;;;2.42;1.30;;;14.20;35.70;;;;;;5072547;28;20064;-47
2021/03/20 11:35:19;;;;;;;4.22;1.33;;;14.70;34.40;;;;;;5071191;28;20099;-50
2021/03/20 11:37:45;;;;;;;4.60;1.50;;;14.90;34.40;;;;;;5055452;28;20021;-49
2021/03/20 11:40:24;;;;;;;3.13;1.30;;;15.20;33.70;;;;;;5058639;28;20025;-48
2021/03/20 11:42:55;;;;;;;2.78;1.63;;;15.50;33.90;;;;;;5052620;28;20029;-50
2021/03/20 11:45:34;;;;;;;5.78;1.65;;;15.50;33.80;;;;;;5067934;28;20499;-47
2021/03/20 11:48:20;;;;;;;4.57;1.67;;;15.50;31.70;;;;;;5068382;28;20082;-48
2021/03/20 11:50:55;;;;;;;5.32;1.42;;;15.30;31.30;;;;;;5058829;28;20021;-49
2021/03/20 11:53:43;;;;;;;3.03;1.50;;;16.00;32.60;;;;;;5048940;28;20029;-49
2021/03/20 11:56:33;;;;;;;3.08;1.50;;;15.60;35.90;;;;;;5046414;28;20048;-47
2021/03/20 11:59:02;;;;;;;4.15;1.90;;;15.20;34.00;;;;;;5059962;28;20096;-46
2021/03/20 12:01:29;;;;;;;4.18;1.75;;;15.50;32.50;;;;;;5065777;28;20036;-48
2021/03/20 12:03:57;;;;;;;4.57;1.80;;;15.90;30.70;;;;;;5082899;28;20027;-47
2021/03/20 12:06:25;;;;;;;3.53;1.88;;;15.30;34.00;;;;;;5061825;28;20102;-47
2021/03/20 12:08:59;;;;;;;2.65;1.65;;;15.10;33.10;;;;;;5060474;28;20032;-50
2021/03/20 12:11:43;;;;;;;5.40;2.35;;;15.00;33.70;;;;;;5073532;28;20049;-49
2021/03/20 12:14:30;;;;;;;4.40;1.73;;;14.60;33.40;;;;;;5070404;28;20025;-46
2021/03/20 12:17:01;;;;;;;3.67;2.25;;;14.50;34.70;;;;;;5081091;28;20374;-49
2021/03/20 12:19:27;;;;;;;3.38;1.70;;;13.90;35.00;;;;;;5083052;28;20034;-46
2021/03/20 12:22:05;;;;;;;5.10;1.92;;;13.20;37.20;;;;;;5085285;28;20021;-46
2021/03/20 12:24:44;;;;;;;2.92;1.73;;;13.10;36.20;;;;;;5053156;28;20027;-48
2021/03/20 12:27:32;;;;;;;3.05;1.98;;;12.30;36.50;;;;;;5062989;28;20390;-47
2021/03/20 12:30:21;;;;;;;3.67;1.60;;;11.60;36.50;;;;;;5062141;28;20802;-47
2021/03/20 12:32:52;;;;;;;1.95;1.40;;;11.10;37.10;;;;;;5083710;28;20085;-47
2021/03/20 12:35:17;;;;;;;2.90;2.00;;;11.30;37.10;;;;;;5066690;28;20060;-46
2021/03/20 12:38:03;;;;;;;2.40;1.45;;;11.10;38.00;;;;;;5082341;28;20113;-47
2021/03/20 12:40:30;;;;;;;3.40;1.63;;;10.60;37.40;;;;;;5058776;28;20493;-46
2021/03/20 12:42:59;;;;;;;5.40;1.73;;;10.60;37.10;;;;;;5082450;28;20398;-47
2021/03/20 12:45:27;;;;;;;4.45;1.80;;;10.20;40.40;;;;;;5081742;28;20385;-48
2021/03/20 12:47:53;;;;;;;3.15;1.85;;;10.30;40.10;;;;;;5074175;28;20110;-46
2021/03/20 12:50:18;;;;;;;5.78;2.20;;;10.80;38.70;;;;;;5084399;28;20042;-46
2021/03/20 12:52:44;;;;;;;2.35;1.90;;;10.90;40.60;;;;;;5083259;28;20420;-45
2021/03/20 12:55:12;;;;;;;4.78;2.00;;;10.50;40.50;;;;;;5073400;28;20032;-47
2021/03/20 12:57:37;;;;;;;5.63;1.90;;;10.50;42.80;;;;;;5077165;28;20139;-47
2021/03/20 13:00:10;;;;;;;2.63;1.50;;;10.50;41.60;;;;;;5071415;28;20130;-46
2021/03/20 13:02:36;;;;;;;3.78;1.45;;;10.70;39.30;;;;;;5084895;28;20494;-46
2021/03/20 13:05:02;;;;;;;4.30;1.88;;;10.80;40.90;;;;;;5077774;28;20035;-46
2021/03/20 13:07:29;;;;;;;2.60;1.70;;;10.40;39.50;;;;;;5077118;28;20090;-46
2021/03/20 13:09:54;;;;;;;2.65;1.65;;;10.20;39.80;;;;;;5085686;28;20152;-47
2021/03/20 13:12:20;;;;;;;3.25;1.30;;;10.10;40.40;;;;;;5072729;28;20114;-46
2021/03/20 13:14:46;;;;;;;2.55;1.77;;;10.30;41.40;;;;;;5082936;28;20036;-45
2021/03/20 13:17:12;;;;;;;2.75;1.60;;;10.10;41.90;;;;;;5078883;28;20102;-46
2021/03/20 13:19:37;;;;;;;4.18;1.73;;;10.40;39.30;;;;;;5075927;28;20551;-45
2021/03/20 13:22:05;;;;;;;7.03;2.00;;;10.30;40.00;;;;;;5049770;28;20075;-46
2021/03/20 13:24:31;;;;;;;4.80;1.75;;;10.60;41.70;;;;;;5048775;28;20494;-46
2021/03/20 13:26:57;;;;;;;4.13;1.60;;;10.70;40.90;;;;;;5050166;28;20060;-46
2021/03/20 13:29:22;;;;;;;3.35;1.75;;;10.60;37.70;;;;;;5068771;28;20049;-46
2021/03/20 13:31:48;;;;;;;1.77;1.17;;;10.60;40.00;;;;;;5060456;28;20214;-46
2021/03/20 13:34:14;;;;;;;3.55;1.75;;;10.20;41.00;;;;;;5059743;28;20047;-46